sensor_id;sensor_type;location;lat;lon;timestamp;P1;durP1;ratioP1;P2;durP2;ratioP2
3329;SDS011;1677;49.576;10.990;2023-02-01T00:00:33;6.23;;;5.00;;
3329;SDS011;1677;49.576;10.990;2023-02-01T00:02:59;4.13;;;3.73;;
3329;SDS011;1677;49.576;10.990;2023-02-01T00:05:25;5.63;;;4.07;;
3329;SDS011;1677;49.576;10.990;2023-02-01T00:07:51;5.73;;;4.57;;
3329;SDS011;1677;49.576;10.990;2023-02-01T00:10:16;9.83;;;5.33;;
3329;SDS011;1677;49.576;10.990;2023-02-01T00:12:43;5.88;;;4.95;;
3329;SDS011;1677;49.576;10.990;2023-02-01T00:15:08;8.52;;;4.70;;
3329;SDS011;1677;49.576;10.990;2023-02-01T00:17:34;9.90;;;5.30;;
3329;SDS011;1677;49.576;10.990;2023-02-01T00:20:00;9.20;;;5.27;;
3329;SDS011;1677;49.576;10.990;2023-02-01T00:22:26;7.47;;;5.83;;
3329;SDS011;1677;49.576;10.990;2023-02-01T00:24:51;6.63;;;4.97;;
3329;SDS011;1677;49.576;10.990;2023-02-01T00:27:17;7.07;;;5.37;;
3329;SDS011;1677;49.576;10.990;2023-02-01T00:29:45;8.27;;;4.75;;
3329;SDS011;1677;49.576;10.990;2023-02-01T00:32:11;6.53;;;5.27;;
3329;SDS011;1677;49.576;10.990;2023-02-01T00:34:37;5.10;;;4.40;;
3329;SDS011;1677;49.576;10.990;2023-02-01T00:37:02;7.30;;;5.50;;
3329;SDS011;1677;49.576;10.990;2023-02-01T00:39:28;5.90;;;5.33;;
3329;SDS011;1677;49.576;10.990;2023-02-01T00:41:54;6.60;;;5.27;;
3329;SDS011;1677;49.576;10.990;2023-02-01T00:44:19;7.03;;;4.70;;
3329;SDS011;1677;49.576;10.990;2023-02-01T00:46:45;8.27;;;4.87;;
3329;SDS011;1677;49.576;10.990;2023-02-01T00:49:10;6.50;;;4.90;;
3329;SDS011;1677;49.576;10.990;2023-02-01T00:51:36;4.70;;;4.20;;
3329;SDS011;1677;49.576;10.990;2023-02-01T00:54:01;4.67;;;4.27;;
3329;SDS011;1677;49.576;10.990;2023-02-01T00:56:28;7.60;;;4.82;;
3329;SDS011;1677;49.576;10.990;2023-02-01T00:58:54;4.40;;;3.97;;
3329;SDS011;1677;49.576;10.990;2023-02-01T01:01:20;6.87;;;5.00;;
3329;SDS011;1677;49.576;10.990;2023-02-01T01:03:49;5.15;;;3.75;;
3329;SDS011;1677;49.576;10.990;2023-02-01T01:06:17;5.63;;;4.38;;
3329;SDS011;1677;49.576;10.990;2023-02-01T01:08:45;6.43;;;4.20;;
3329;SDS011;1677;49.576;10.990;2023-02-01T01:11:16;4.50;;;3.72;;
3329;SDS011;1677;49.576;10.990;2023-02-01T01:13:45;10.25;;;5.00;;
3329;SDS011;1677;49.576;10.990;2023-02-01T01:16:11;4.65;;;4.20;;
3329;SDS011;1677;49.576;10.990;2023-02-01T01:18:37;7.10;;;5.03;;
3329;SDS011;1677;49.576;10.990;2023-02-01T01:21:06;5.27;;;3.93;;
3329;SDS011;1677;49.576;10.990;2023-02-01T01:23:34;4.30;;;3.90;;
3329;SDS011;1677;49.576;10.990;2023-02-01T01:26:00;8.45;;;4.50;;
3329;SDS011;1677;49.576;10.990;2023-02-01T01:28:29;4.38;;;3.97;;
3329;SDS011;1677;49.576;10.990;2023-02-01T01:30:55;4.77;;;4.30;;
3329;SDS011;1677;49.576;10.990;2023-02-01T01:33:20;8.37;;;4.40;;
3329;SDS011;1677;49.576;10.990;2023-02-01T01:35:46;4.77;;;3.73;;
3329;SDS011;1677;49.576;10.990;2023-02-01T01:38:11;6.30;;;4.73;;
3329;SDS011;1677;49.576;10.990;2023-02-01T01:40:37;6.33;;;4.10;;
3329;SDS011;1677;49.576;10.990;2023-02-01T01:43:03;4.30;;;3.60;;
3329;SDS011;1677;49.576;10.990;2023-02-01T01:48:13;6.18;;;3.90;;
3329;SDS011;1677;49.576;10.990;2023-02-01T01:53:20;5.65;;;4.32;;
3329;SDS011;1677;49.576;10.990;2023-02-01T01:55:51;4.28;;;3.88;;
3329;SDS011;1677;49.576;10.990;2023-02-01T01:58:19;7.13;;;4.30;;
3329;SDS011;1677;49.576;10.990;2023-02-01T02:00:50;7.47;;;4.95;;
3329;SDS011;1677;49.576;10.990;2023-02-01T02:05:50;5.18;;;4.20;;
3329;SDS011;1677;49.576;10.990;2023-02-01T02:08:18;4.68;;;4.25;;
3329;SDS011;1677;49.576;10.990;2023-02-01T02:10:48;4.88;;;4.18;;
3329;SDS011;1677;49.576;10.990;2023-02-01T02:13:37;6.15;;;4.53;;
3329;SDS011;1677;49.576;10.990;2023-02-01T02:19:09;4.45;;;3.80;;
3329;SDS011;1677;49.576;10.990;2023-02-01T02:30:45;5.18;;;3.53;;
3329;SDS011;1677;49.576;10.990;2023-02-01T02:33:30;6.70;;;6.05;;
3329;SDS011;1677;49.576;10.990;2023-02-01T02:36:07;6.68;;;4.20;;
3329;SDS011;1677;49.576;10.990;2023-02-01T02:38:52;5.43;;;4.53;;
3329;SDS011;1677;49.576;10.990;2023-02-01T02:44:32;4.40;;;3.95;;
3329;SDS011;1677;49.576;10.990;2023-02-01T02:47:33;5.00;;;4.45;;
3329;SDS011;1677;49.576;10.990;2023-02-01T02:50:08;5.93;;;3.92;;
3329;SDS011;1677;49.576;10.990;2023-02-01T02:53:21;5.88;;;4.60;;
3329;SDS011;1677;49.576;10.990;2023-02-01T02:56:14;4.25;;;3.70;;
3329;SDS011;1677;49.576;10.990;2023-02-01T02:58:59;4.43;;;4.03;;
3329;SDS011;1677;49.576;10.990;2023-02-01T03:01:45;5.22;;;4.72;;
3329;SDS011;1677;49.576;10.990;2023-02-01T03:04:30;4.72;;;4.10;;
3329;SDS011;1677;49.576;10.990;2023-02-01T03:06:56;4.43;;;3.93;;
3329;SDS011;1677;49.576;10.990;2023-02-01T03:09:31;4.87;;;4.00;;
3329;SDS011;1677;49.576;10.990;2023-02-01T03:12:01;5.05;;;4.18;;
3329;SDS011;1677;49.576;10.990;2023-02-01T03:14:57;3.88;;;3.45;;
3329;SDS011;1677;49.576;10.990;2023-02-01T03:17:31;3.80;;;3.50;;
3329;SDS011;1677;49.576;10.990;2023-02-01T03:20:01;4.05;;;2.58;;
3329;SDS011;1677;49.576;10.990;2023-02-01T03:22:28;4.63;;;3.28;;
3329;SDS011;1677;49.576;10.990;2023-02-01T03:25:00;5.65;;;3.53;;
3329;SDS011;1677;49.576;10.990;2023-02-01T03:30:02;5.95;;;3.45;;
3329;SDS011;1677;49.576;10.990;2023-02-01T03:32:30;3.60;;;3.20;;
3329;SDS011;1677;49.576;10.990;2023-02-01T03:35:16;3.60;;;3.30;;
3329;SDS011;1677;49.576;10.990;2023-02-01T03:37:43;5.55;;;3.90;;
3329;SDS011;1677;49.576;10.990;2023-02-01T03:40:09;5.10;;;4.00;;
3329;SDS011;1677;49.576;10.990;2023-02-01T03:42:38;3.47;;;3.17;;
3329;SDS011;1677;49.576;10.990;2023-02-01T03:47:57;5.55;;;4.00;;
3329;SDS011;1677;49.576;10.990;2023-02-01T03:50:25;4.90;;;3.70;;
3329;SDS011;1677;49.576;10.990;2023-02-01T03:52:57;4.40;;;3.92;;
3329;SDS011;1677;49.576;10.990;2023-02-01T03:55:26;4.95;;;4.40;;
3329;SDS011;1677;49.576;10.990;2023-02-01T03:58:07;5.28;;;4.13;;
3329;SDS011;1677;49.576;10.990;2023-02-01T04:00:37;6.72;;;5.25;;
3329;SDS011;1677;49.576;10.990;2023-02-01T04:03:03;6.22;;;5.03;;
3329;SDS011;1677;49.576;10.990;2023-02-01T04:05:30;5.82;;;4.53;;
3329;SDS011;1677;49.576;10.990;2023-02-01T04:07:56;5.00;;;4.40;;
3329;SDS011;1677;49.576;10.990;2023-02-01T04:10:22;5.00;;;4.50;;
3329;SDS011;1677;49.576;10.990;2023-02-01T04:12:48;5.60;;;4.73;;
3329;SDS011;1677;49.576;10.990;2023-02-01T04:15:14;8.10;;;5.90;;
3329;SDS011;1677;49.576;10.990;2023-02-01T04:17:39;5.93;;;5.33;;
3329;SDS011;1677;49.576;10.990;2023-02-01T04:20:05;6.27;;;4.50;;
3329;SDS011;1677;49.576;10.990;2023-02-01T04:22:31;13.80;;;5.50;;
3329;SDS011;1677;49.576;10.990;2023-02-01T04:24:56;4.90;;;4.40;;
3329;SDS011;1677;49.576;10.990;2023-02-01T04:27:22;7.73;;;5.40;;
3329;SDS011;1677;49.576;10.990;2023-02-01T04:29:48;9.13;;;4.77;;
3329;SDS011;1677;49.576;10.990;2023-02-01T04:32:16;7.90;;;5.18;;
3329;SDS011;1677;49.576;10.990;2023-02-01T04:34:42;6.40;;;5.18;;
3329;SDS011;1677;49.576;10.990;2023-02-01T04:37:08;8.77;;;5.40;;
3329;SDS011;1677;49.576;10.990;2023-02-01T04:39:33;7.00;;;5.33;;
3329;SDS011;1677;49.576;10.990;2023-02-01T04:41:59;5.30;;;4.80;;
3329;SDS011;1677;49.576;10.990;2023-02-01T04:44:25;6.37;;;4.70;;
3329;SDS011;1677;49.576;10.990;2023-02-01T04:46:50;7.10;;;4.70;;
3329;SDS011;1677;49.576;10.990;2023-02-01T04:49:16;9.80;;;4.83;;
3329;SDS011;1677;49.576;10.990;2023-02-01T04:51:42;9.73;;;5.47;;
3329;SDS011;1677;49.576;10.990;2023-02-01T04:54:07;5.03;;;4.33;;
3329;SDS011;1677;49.576;10.990;2023-02-01T04:56:36;5.63;;;5.05;;
3329;SDS011;1677;49.576;10.990;2023-02-01T04:59:02;8.07;;;5.30;;
3329;SDS011;1677;49.576;10.990;2023-02-01T05:01:28;5.57;;;5.00;;
3329;SDS011;1677;49.576;10.990;2023-02-01T05:03:53;10.85;;;5.80;;
3329;SDS011;1677;49.576;10.990;2023-02-01T05:06:20;8.48;;;6.80;;
3329;SDS011;1677;49.576;10.990;2023-02-01T05:08:45;6.18;;;4.20;;
3329;SDS011;1677;49.576;10.990;2023-02-01T05:11:11;7.97;;;4.93;;
3329;SDS011;1677;49.576;10.990;2023-02-01T05:13:57;5.13;;;4.63;;
3329;SDS011;1677;49.576;10.990;2023-02-01T05:16:23;5.50;;;4.82;;
3329;SDS011;1677;49.576;10.990;2023-02-01T05:18:49;7.33;;;4.43;;
3329;SDS011;1677;49.576;10.990;2023-02-01T05:21:14;6.13;;;4.10;;
3329;SDS011;1677;49.576;10.990;2023-02-01T05:23:40;5.73;;;4.47;;
3329;SDS011;1677;49.576;10.990;2023-02-01T05:26:24;8.82;;;6.88;;
3329;SDS011;1677;49.576;10.990;2023-02-01T05:28:50;9.93;;;5.70;;
3329;SDS011;1677;49.576;10.990;2023-02-01T05:31:16;5.50;;;4.20;;
3329;SDS011;1677;49.576;10.990;2023-02-01T05:33:42;8.75;;;4.65;;
3329;SDS011;1677;49.576;10.990;2023-02-01T05:36:07;6.83;;;3.60;;
3329;SDS011;1677;49.576;10.990;2023-02-01T05:38:33;5.50;;;4.07;;
3329;SDS011;1677;49.576;10.990;2023-02-01T05:40:59;7.00;;;3.67;;
3329;SDS011;1677;49.576;10.990;2023-02-01T05:43:24;4.77;;;2.97;;
3329;SDS011;1677;49.576;10.990;2023-02-01T05:45:53;7.23;;;3.63;;
3329;SDS011;1677;49.576;10.990;2023-02-01T05:48:18;4.57;;;3.60;;
3329;SDS011;1677;49.576;10.990;2023-02-01T05:50:44;10.13;;;4.77;;
3329;SDS011;1677;49.576;10.990;2023-02-01T05:53:10;4.30;;;3.90;;
3329;SDS011;1677;49.576;10.990;2023-02-01T05:55:36;5.50;;;3.27;;
3329;SDS011;1677;49.576;10.990;2023-02-01T05:58:02;5.00;;;2.78;;
3329;SDS011;1677;49.576;10.990;2023-02-01T06:00:28;3.28;;;2.70;;
3329;SDS011;1677;49.576;10.990;2023-02-01T06:02:54;3.77;;;2.77;;
3329;SDS011;1677;49.576;10.990;2023-02-01T06:05:19;4.80;;;3.20;;
3329;SDS011;1677;49.576;10.990;2023-02-01T06:07:45;6.43;;;4.27;;
3329;SDS011;1677;49.576;10.990;2023-02-01T06:10:11;3.20;;;2.17;;
3329;SDS011;1677;49.576;10.990;2023-02-01T06:12:37;4.10;;;2.83;;
3329;SDS011;1677;49.576;10.990;2023-02-01T06:15:03;7.77;;;4.20;;
3329;SDS011;1677;49.576;10.990;2023-02-01T06:17:29;4.15;;;3.03;;
3329;SDS011;1677;49.576;10.990;2023-02-01T06:19:55;6.10;;;3.77;;
3329;SDS011;1677;49.576;10.990;2023-02-01T06:22:20;5.53;;;3.90;;
3329;SDS011;1677;49.576;10.990;2023-02-01T06:24:47;3.35;;;1.80;;
3329;SDS011;1677;49.576;10.990;2023-02-01T06:27:13;4.05;;;2.80;;
3329;SDS011;1677;49.576;10.990;2023-02-01T06:29:39;7.80;;;2.70;;
3329;SDS011;1677;49.576;10.990;2023-02-01T06:32:05;2.20;;;1.97;;
3329;SDS011;1677;49.576;10.990;2023-02-01T06:34:30;5.07;;;2.60;;
3329;SDS011;1677;49.576;10.990;2023-02-01T06:36:56;3.03;;;2.20;;
3329;SDS011;1677;49.576;10.990;2023-02-01T06:39:21;3.00;;;2.70;;
3329;SDS011;1677;49.576;10.990;2023-02-01T06:41:47;4.50;;;3.20;;
3329;SDS011;1677;49.576;10.990;2023-02-01T06:44:14;3.22;;;2.03;;
3329;SDS011;1677;49.576;10.990;2023-02-01T06:46:40;3.65;;;2.40;;
3329;SDS011;1677;49.576;10.990;2023-02-01T06:49:05;3.33;;;2.67;;
3329;SDS011;1677;49.576;10.990;2023-02-01T06:51:31;1.97;;;1.67;;
3329;SDS011;1677;49.576;10.990;2023-02-01T06:53:57;2.53;;;2.33;;
3329;SDS011;1677;49.576;10.990;2023-02-01T06:56:23;5.13;;;2.90;;
3329;SDS011;1677;49.576;10.990;2023-02-01T06:58:48;1.90;;;1.37;;
3329;SDS011;1677;49.576;10.990;2023-02-01T07:01:14;2.30;;;2.00;;
3329;SDS011;1677;49.576;10.990;2023-02-01T07:03:41;2.55;;;2.20;;
3329;SDS011;1677;49.576;10.990;2023-02-01T07:06:07;2.30;;;2.10;;
3329;SDS011;1677;49.576;10.990;2023-02-01T07:08:34;2.55;;;2.10;;
3329;SDS011;1677;49.576;10.990;2023-02-01T07:11:02;3.05;;;2.38;;
3329;SDS011;1677;49.576;10.990;2023-02-01T07:13:29;3.70;;;1.85;;
3329;SDS011;1677;49.576;10.990;2023-02-01T07:15:57;1.93;;;1.80;;
3329;SDS011;1677;49.576;10.990;2023-02-01T07:18:23;2.25;;;1.92;;
3329;SDS011;1677;49.576;10.990;2023-02-01T07:20:49;6.83;;;2.70;;
3329;SDS011;1677;49.576;10.990;2023-02-01T07:23:16;3.38;;;2.10;;
3329;SDS011;1677;49.576;10.990;2023-02-01T07:25:42;3.17;;;2.87;;
3329;SDS011;1677;49.576;10.990;2023-02-01T07:28:07;3.30;;;2.13;;
3329;SDS011;1677;49.576;10.990;2023-02-01T07:30:33;4.63;;;3.20;;
3329;SDS011;1677;49.576;10.990;2023-02-01T07:32:58;2.60;;;2.30;;
3329;SDS011;1677;49.576;10.990;2023-02-01T07:35:26;3.58;;;2.28;;
3329;SDS011;1677;49.576;10.990;2023-02-01T07:37:53;2.70;;;2.10;;
3329;SDS011;1677;49.576;10.990;2023-02-01T07:40:18;3.90;;;2.60;;
3329;SDS011;1677;49.576;10.990;2023-02-01T07:42:48;3.10;;;2.40;;
3329;SDS011;1677;49.576;10.990;2023-02-01T07:45:13;4.45;;;2.83;;
3329;SDS011;1677;49.576;10.990;2023-02-01T07:47:40;3.15;;;2.13;;
3329;SDS011;1677;49.576;10.990;2023-02-01T07:50:06;2.73;;;2.37;;
3329;SDS011;1677;49.576;10.990;2023-02-01T07:52:32;3.97;;;2.45;;
3329;SDS011;1677;49.576;10.990;2023-02-01T07:54:58;3.40;;;2.53;;
3329;SDS011;1677;49.576;10.990;2023-02-01T07:57:23;5.83;;;2.63;;
3329;SDS011;1677;49.576;10.990;2023-02-01T07:59:49;3.27;;;2.20;;
3329;SDS011;1677;49.576;10.990;2023-02-01T08:02:33;2.70;;;2.25;;
3329;SDS011;1677;49.576;10.990;2023-02-01T08:04:59;8.53;;;2.77;;
3329;SDS011;1677;49.576;10.990;2023-02-01T08:07:24;6.33;;;2.70;;
3329;SDS011;1677;49.576;10.990;2023-02-01T08:09:50;4.03;;;3.30;;
3329;SDS011;1677;49.576;10.990;2023-02-01T08:12:15;6.60;;;2.23;;
3329;SDS011;1677;49.576;10.990;2023-02-01T08:14:41;4.00;;;2.00;;
3329;SDS011;1677;49.576;10.990;2023-02-01T08:17:07;6.50;;;2.60;;
3329;SDS011;1677;49.576;10.990;2023-02-01T08:19:32;2.07;;;1.70;;
3329;SDS011;1677;49.576;10.990;2023-02-01T08:21:58;3.25;;;2.33;;
3329;SDS011;1677;49.576;10.990;2023-02-01T08:24:24;1.67;;;1.57;;
3329;SDS011;1677;49.576;10.990;2023-02-01T08:26:50;4.90;;;2.20;;
3329;SDS011;1677;49.576;10.990;2023-02-01T08:29:15;3.70;;;2.30;;
3329;SDS011;1677;49.576;10.990;2023-02-01T08:31:41;3.63;;;1.87;;
3329;SDS011;1677;49.576;10.990;2023-02-01T08:34:08;5.30;;;2.97;;
3329;SDS011;1677;49.576;10.990;2023-02-01T08:36:34;3.63;;;1.95;;
3329;SDS011;1677;49.576;10.990;2023-02-01T08:39:00;8.50;;;2.60;;
3329;SDS011;1677;49.576;10.990;2023-02-01T08:41:28;3.85;;;1.90;;
3329;SDS011;1677;49.576;10.990;2023-02-01T08:43:55;2.85;;;2.22;;
3329;SDS011;1677;49.576;10.990;2023-02-01T08:46:22;6.80;;;2.65;;
3329;SDS011;1677;49.576;10.990;2023-02-01T08:48:48;2.53;;;1.90;;
3329;SDS011;1677;49.576;10.990;2023-02-01T08:51:14;3.28;;;2.10;;
3329;SDS011;1677;49.576;10.990;2023-02-01T08:53:42;3.65;;;2.47;;
3329;SDS011;1677;49.576;10.990;2023-02-01T08:56:09;2.53;;;1.60;;
3329;SDS011;1677;49.576;10.990;2023-02-01T08:58:36;3.25;;;2.05;;
3329;SDS011;1677;49.576;10.990;2023-02-01T09:01:05;4.88;;;2.70;;
3329;SDS011;1677;49.576;10.990;2023-02-01T09:03:33;5.80;;;2.35;;
3329;SDS011;1677;49.576;10.990;2023-02-01T09:06:02;2.63;;;1.80;;
3329;SDS011;1677;49.576;10.990;2023-02-01T09:08:32;3.42;;;2.20;;
3329;SDS011;1677;49.576;10.990;2023-02-01T09:10:59;7.85;;;2.70;;
3329;SDS011;1677;49.576;10.990;2023-02-01T09:13:28;5.50;;;2.08;;
3329;SDS011;1677;49.576;10.990;2023-02-01T09:15:54;4.67;;;2.27;;
3329;SDS011;1677;49.576;10.990;2023-02-01T09:18:20;3.40;;;2.57;;
3329;SDS011;1677;49.576;10.990;2023-02-01T09:20:46;2.50;;;1.73;;
3329;SDS011;1677;49.576;10.990;2023-02-01T09:23:11;2.07;;;1.87;;
3329;SDS011;1677;49.576;10.990;2023-02-01T09:25:38;2.28;;;2.08;;
3329;SDS011;1677;49.576;10.990;2023-02-01T09:28:04;4.80;;;2.57;;
3329;SDS011;1677;49.576;10.990;2023-02-01T09:30:31;5.65;;;2.35;;
3329;SDS011;1677;49.576;10.990;2023-02-01T09:32:57;3.92;;;2.90;;
3329;SDS011;1677;49.576;10.990;2023-02-01T09:35:23;5.33;;;2.23;;
3329;SDS011;1677;49.576;10.990;2023-02-01T09:37:49;6.03;;;2.43;;
3329;SDS011;1677;49.576;10.990;2023-02-01T09:40:15;3.30;;;2.00;;
3329;SDS011;1677;49.576;10.990;2023-02-01T09:48:39;4.97;;;2.72;;
3329;SDS011;1677;49.576;10.990;2023-02-01T09:51:13;6.28;;;1.65;;
3329;SDS011;1677;49.576;10.990;2023-02-01T09:53:43;6.70;;;2.20;;
3329;SDS011;1677;49.576;10.990;2023-02-01T09:56:21;5.40;;;1.98;;
3329;SDS011;1677;49.576;10.990;2023-02-01T09:59:09;3.90;;;2.10;;
3329;SDS011;1677;49.576;10.990;2023-02-01T10:01:46;7.30;;;3.10;;
3329;SDS011;1677;49.576;10.990;2023-02-01T10:04:13;5.20;;;2.80;;
3329;SDS011;1677;49.576;10.990;2023-02-01T10:06:43;6.82;;;2.70;;
3329;SDS011;1677;49.576;10.990;2023-02-01T10:09:40;5.22;;;1.65;;
3329;SDS011;1677;49.576;10.990;2023-02-01T10:21:34;2.33;;;1.95;;
3329;SDS011;1677;49.576;10.990;2023-02-01T10:26:15;5.28;;;2.65;;
3329;SDS011;1677;49.576;10.990;2023-02-01T10:28:48;8.25;;;3.00;;
3329;SDS011;1677;49.576;10.990;2023-02-01T10:31:16;3.78;;;2.47;;
3329;SDS011;1677;49.576;10.990;2023-02-01T10:33:47;5.07;;;2.60;;
3329;SDS011;1677;49.576;10.990;2023-02-01T10:36:19;5.88;;;4.25;;
3329;SDS011;1677;49.576;10.990;2023-02-01T10:38:50;8.80;;;2.75;;
3329;SDS011;1677;49.576;10.990;2023-02-01T10:41:22;5.27;;;3.20;;
3329;SDS011;1677;49.576;10.990;2023-02-01T10:43:53;10.27;;;4.00;;
3329;SDS011;1677;49.576;10.990;2023-02-01T10:46:22;9.85;;;3.15;;
3329;SDS011;1677;49.576;10.990;2023-02-01T10:48:49;7.63;;;3.83;;
3329;SDS011;1677;49.576;10.990;2023-02-01T10:51:27;5.47;;;3.65;;
3329;SDS011;1677;49.576;10.990;2023-02-01T10:54:19;6.45;;;3.60;;
3329;SDS011;1677;49.576;10.990;2023-02-01T10:56:47;7.22;;;3.85;;
3329;SDS011;1677;49.576;10.990;2023-02-01T10:59:15;11.20;;;3.60;;
3329;SDS011;1677;49.576;10.990;2023-02-01T11:01:43;4.20;;;2.92;;
3329;SDS011;1677;49.576;10.990;2023-02-01T11:04:15;6.23;;;3.43;;
3329;SDS011;1677;49.576;10.990;2023-02-01T11:06:51;11.52;;;3.33;;
3329;SDS011;1677;49.576;10.990;2023-02-01T11:09:30;8.02;;;3.00;;
3329;SDS011;1677;49.576;10.990;2023-02-01T11:11:57;6.05;;;3.88;;
3329;SDS011;1677;49.576;10.990;2023-02-01T11:17:00;8.53;;;3.17;;
3329;SDS011;1677;49.576;10.990;2023-02-01T11:19:45;4.40;;;2.80;;
3329;SDS011;1677;49.576;10.990;2023-02-01T11:22:12;8.57;;;3.72;;
3329;SDS011;1677;49.576;10.990;2023-02-01T11:24:38;7.47;;;2.88;;
3329;SDS011;1677;49.576;10.990;2023-02-01T11:27:06;7.45;;;3.63;;
3329;SDS011;1677;49.576;10.990;2023-02-01T11:29:52;7.63;;;3.15;;
3329;SDS011;1677;49.576;10.990;2023-02-01T11:32:22;5.10;;;3.03;;
3329;SDS011;1677;49.576;10.990;2023-02-01T11:34:51;3.45;;;3.08;;
3329;SDS011;1677;49.576;10.990;2023-02-01T11:37:30;5.82;;;2.80;;
3329;SDS011;1677;49.576;10.990;2023-02-01T11:42:58;7.05;;;3.15;;
3329;SDS011;1677;49.576;10.990;2023-02-01T11:48:45;5.18;;;2.40;;
3329;SDS011;1677;49.576;10.990;2023-02-01T12:04:18;12.32;;;3.42;;
3329;SDS011;1677;49.576;10.990;2023-02-01T12:09:34;6.45;;;2.83;;
3329;SDS011;1677;49.576;10.990;2023-02-01T12:15:14;8.32;;;2.28;;
3329;SDS011;1677;49.576;10.990;2023-02-01T12:20:38;5.63;;;2.70;;
3329;SDS011;1677;49.576;10.990;2023-02-01T12:23:37;10.50;;;2.70;;
3329;SDS011;1677;49.576;10.990;2023-02-01T12:32:10;10.30;;;4.85;;
3329;SDS011;1677;49.576;10.990;2023-02-01T12:42:58;7.53;;;3.20;;
3329;SDS011;1677;49.576;10.990;2023-02-01T12:45:44;5.60;;;3.20;;
3329;SDS011;1677;49.576;10.990;2023-02-01T12:51:02;7.10;;;3.83;;
3329;SDS011;1677;49.576;10.990;2023-02-01T12:58:51;10.00;;;3.80;;
3329;SDS011;1677;49.576;10.990;2023-02-01T13:01:21;4.40;;;2.20;;
3329;SDS011;1677;49.576;10.990;2023-02-01T13:06:55;15.80;;;4.22;;
3329;SDS011;1677;49.576;10.990;2023-02-01T13:12:27;10.10;;;3.50;;
3329;SDS011;1677;49.576;10.990;2023-02-01T13:14:54;5.40;;;3.40;;
3329;SDS011;1677;49.576;10.990;2023-02-01T13:17:28;6.10;;;4.45;;
3329;SDS011;1677;49.576;10.990;2023-02-01T13:22:42;8.52;;;2.83;;
3329;SDS011;1677;49.576;10.990;2023-02-01T13:25:13;5.68;;;2.90;;
3329;SDS011;1677;49.576;10.990;2023-02-01T13:27:42;8.15;;;3.70;;
3329;SDS011;1677;49.576;10.990;2023-02-01T13:30:12;3.92;;;2.72;;
3329;SDS011;1677;49.576;10.990;2023-02-01T13:33:14;5.38;;;2.97;;
3329;SDS011;1677;49.576;10.990;2023-02-01T13:38:43;7.50;;;2.67;;
3329;SDS011;1677;49.576;10.990;2023-02-01T13:41:28;5.10;;;2.88;;
3329;SDS011;1677;49.576;10.990;2023-02-01T13:44:03;3.97;;;2.30;;
3329;SDS011;1677;49.576;10.990;2023-02-01T13:46:44;4.47;;;2.70;;
3329;SDS011;1677;49.576;10.990;2023-02-01T13:49:28;5.22;;;2.40;;
3329;SDS011;1677;49.576;10.990;2023-02-01T13:51:57;6.18;;;3.50;;
3329;SDS011;1677;49.576;10.990;2023-02-01T13:54:37;5.28;;;2.60;;
3329;SDS011;1677;49.576;10.990;2023-02-01T13:57:05;8.20;;;2.97;;
3329;SDS011;1677;49.576;10.990;2023-02-01T14:05:08;3.60;;;2.30;;
3329;SDS011;1677;49.576;10.990;2023-02-01T14:07:36;4.00;;;2.08;;
3329;SDS011;1677;49.576;10.990;2023-02-01T14:13:12;6.30;;;2.65;;
3329;SDS011;1677;49.576;10.990;2023-02-01T14:16:29;11.40;;;2.65;;
3329;SDS011;1677;49.576;10.990;2023-02-01T14:23:45;5.60;;;2.53;;
3329;SDS011;1677;49.576;10.990;2023-02-01T14:29:29;7.00;;;2.03;;
3329;SDS011;1677;49.576;10.990;2023-02-01T14:31:59;9.02;;;2.85;;
3329;SDS011;1677;49.576;10.990;2023-02-01T14:37:21;4.22;;;3.08;;
3329;SDS011;1677;49.576;10.990;2023-02-01T14:39:53;6.03;;;2.45;;
3329;SDS011;1677;49.576;10.990;2023-02-01T14:47:48;16.23;;;3.17;;
3329;SDS011;1677;49.576;10.990;2023-02-01T15:04:14;2.83;;;2.50;;
3329;SDS011;1677;49.576;10.990;2023-02-01T15:06:46;9.75;;;2.97;;
3329;SDS011;1677;49.576;10.990;2023-02-01T15:12:04;4.35;;;2.47;;
3329;SDS011;1677;49.576;10.990;2023-02-01T15:14:37;3.97;;;3.25;;
3329;SDS011;1677;49.576;10.990;2023-02-01T15:17:16;7.38;;;3.78;;
3329;SDS011;1677;49.576;10.990;2023-02-01T15:19:52;7.78;;;3.05;;
3329;SDS011;1677;49.576;10.990;2023-02-01T15:22:24;6.55;;;4.47;;
3329;SDS011;1677;49.576;10.990;2023-02-01T15:24:52;8.43;;;3.33;;
3329;SDS011;1677;49.576;10.990;2023-02-01T15:27:19;16.65;;;4.15;;
3329;SDS011;1677;49.576;10.990;2023-02-01T15:29:45;4.15;;;2.17;;
3329;SDS011;1677;49.576;10.990;2023-02-01T15:32:30;6.30;;;3.90;;
3329;SDS011;1677;49.576;10.990;2023-02-01T15:34:57;7.30;;;3.20;;
3329;SDS011;1677;49.576;10.990;2023-02-01T15:37:25;5.93;;;3.00;;
3329;SDS011;1677;49.576;10.990;2023-02-01T15:40:05;8.02;;;2.45;;
3329;SDS011;1677;49.576;10.990;2023-02-01T15:42:34;7.13;;;2.63;;
3329;SDS011;1677;49.576;10.990;2023-02-01T15:45:01;15.05;;;4.25;;
3329;SDS011;1677;49.576;10.990;2023-02-01T15:47:28;7.93;;;2.97;;
3329;SDS011;1677;49.576;10.990;2023-02-01T15:49:56;8.93;;;3.20;;
3329;SDS011;1677;49.576;10.990;2023-02-01T15:52:37;4.50;;;1.85;;
3329;SDS011;1677;49.576;10.990;2023-02-01T15:55:06;5.75;;;3.17;;
3329;SDS011;1677;49.576;10.990;2023-02-01T15:57:44;9.32;;;3.30;;
3329;SDS011;1677;49.576;10.990;2023-02-01T16:00:24;5.82;;;2.65;;
3329;SDS011;1677;49.576;10.990;2023-02-01T16:02:56;11.98;;;4.10;;
3329;SDS011;1677;49.576;10.990;2023-02-01T16:10:38;6.18;;;2.55;;
3329;SDS011;1677;49.576;10.990;2023-02-01T16:13:08;7.82;;;3.03;;
3329;SDS011;1677;49.576;10.990;2023-02-01T16:15:35;10.43;;;3.33;;
3329;SDS011;1677;49.576;10.990;2023-02-01T16:18:01;5.13;;;2.30;;
3329;SDS011;1677;49.576;10.990;2023-02-01T16:20:26;14.27;;;3.00;;
3329;SDS011;1677;49.576;10.990;2023-02-01T16:22:52;9.20;;;2.70;;
3329;SDS011;1677;49.576;10.990;2023-02-01T16:25:18;7.97;;;2.27;;
3329;SDS011;1677;49.576;10.990;2023-02-01T16:27:55;4.15;;;2.00;;
3329;SDS011;1677;49.576;10.990;2023-02-01T16:30:21;3.63;;;2.20;;
3329;SDS011;1677;49.576;10.990;2023-02-01T16:32:50;7.32;;;3.25;;
3329;SDS011;1677;49.576;10.990;2023-02-01T16:35:23;8.85;;;2.90;;
3329;SDS011;1677;49.576;10.990;2023-02-01T16:37:51;4.00;;;2.83;;
3329;SDS011;1677;49.576;10.990;2023-02-01T16:40:17;5.90;;;1.77;;
3329;SDS011;1677;49.576;10.990;2023-02-01T16:42:44;5.97;;;2.50;;
3329;SDS011;1677;49.576;10.990;2023-02-01T16:45:12;2.53;;;1.95;;
3329;SDS011;1677;49.576;10.990;2023-02-01T16:47:38;6.40;;;2.97;;
3329;SDS011;1677;49.576;10.990;2023-02-01T16:50:14;5.93;;;3.08;;
3329;SDS011;1677;49.576;10.990;2023-02-01T16:52:41;5.07;;;3.22;;
3329;SDS011;1677;49.576;10.990;2023-02-01T16:55:12;6.00;;;2.58;;
3329;SDS011;1677;49.576;10.990;2023-02-01T16:57:39;6.50;;;2.97;;
3329;SDS011;1677;49.576;10.990;2023-02-01T17:00:05;8.23;;;3.30;;
3329;SDS011;1677;49.576;10.990;2023-02-01T17:02:31;5.22;;;2.60;;
3329;SDS011;1677;49.576;10.990;2023-02-01T17:04:57;5.53;;;2.40;;
3329;SDS011;1677;49.576;10.990;2023-02-01T17:07:22;4.13;;;2.33;;
3329;SDS011;1677;49.576;10.990;2023-02-01T17:09:48;5.00;;;2.13;;
3329;SDS011;1677;49.576;10.990;2023-02-01T17:12:25;8.37;;;3.33;;
3329;SDS011;1677;49.576;10.990;2023-02-01T17:14:53;4.65;;;2.15;;
3329;SDS011;1677;49.576;10.990;2023-02-01T17:17:19;7.70;;;2.90;;
3329;SDS011;1677;49.576;10.990;2023-02-01T17:19:46;6.15;;;2.67;;
3329;SDS011;1677;49.576;10.990;2023-02-01T17:22:16;5.95;;;2.10;;
3329;SDS011;1677;49.576;10.990;2023-02-01T17:24:42;4.00;;;1.90;;
3329;SDS011;1677;49.576;10.990;2023-02-01T17:27:08;5.83;;;3.20;;
3329;SDS011;1677;49.576;10.990;2023-02-01T17:29:34;4.00;;;1.80;;
3329;SDS011;1677;49.576;10.990;2023-02-01T17:31:59;6.37;;;2.90;;
3329;SDS011;1677;49.576;10.990;2023-02-01T17:34:25;3.40;;;2.07;;
3329;SDS011;1677;49.576;10.990;2023-02-01T17:36:51;8.07;;;2.63;;
3329;SDS011;1677;49.576;10.990;2023-02-01T17:39:17;5.63;;;2.40;;
3329;SDS011;1677;49.576;10.990;2023-02-01T17:42:02;4.93;;;2.75;;
3329;SDS011;1677;49.576;10.990;2023-02-01T17:44:29;11.32;;;3.33;;
3329;SDS011;1677;49.576;10.990;2023-02-01T17:46:55;5.57;;;2.10;;
3329;SDS011;1677;49.576;10.990;2023-02-01T17:49:22;9.48;;;3.08;;
3329;SDS011;1677;49.576;10.990;2023-02-01T17:51:48;4.60;;;2.30;;